Pagrindinis puslapis
METAR-TAF:

METAR-TAF

Oro uostai :

Salala, Omanas

platuma: 17-02N, ilguma: 054-05E, Aukštis: 20 m

Dabartinis oras

Ataskaita buvo paskelbta 1 valandą ir 4 minutes, ne 07:50 UTC
Vėjas 7 kt iš Pietų/Pietryčių
Temperatūra 28°C
Drėgmė 55%
Slėgis 1016 hPa
Matomumas 10 km arba daugiau
Mažai debesys ne aukštis 2500 ft

METAR: OOSA 070750Z 15007KT 9999 FEW025 28/18 Q1016 NOSIG

Laikas: 12:54 (08:54 UTC)

Prognozė

Ataskaita buvo paskelbta 3 valandos ir 14 minutes, ne 05:40 UTC
Prognozė galioja nuo 07 metu 06 UTC su 08 metu 12 UTC
Vėjas 10 kt iš Pietų
Matomumas 10 km arba daugiau
nėra debesų žemiau 1500 m ir nėra kamuolinių lietaus debesų
Tapsmas
nuo 07 metu 13 UTC su 07 metu 15 UTC
Vėjas 6 kt iš Šiaurės
Tapsmas
nuo 08 metu 04 UTC su 08 metu 06 UTC
Vėjas 10 kt iš Pietų

TAF: OOSA 070540Z 0706/0812 17010KT CAVOK BECMG 0713/0715 01006KT BECMG 0804/0806 17010KT

Orai ataskaitas ir orų prognozės (METAR, TAF).

turimą stotys yra geltonos ir raudonos taškus žemėlapyje.

Perkelti pele per norėdami pamatyti stoties vardą.

Tada spustelėkite, norėdami matyti oro stebėjimo ir prognozės.

Norėdami pakeisti žemėlapį: spustelėkite ant žalios mygtukų su juodo kryžiaus žemyn,; žalią mygtuką su brūkšneliu, jei norite nutolinti; arba žalių rodyklių gretimoms žemėlapius.


METAR-TAF: